createdAt,value
2022-12-19T00:01:21.702Z,98120.66
2022-12-19T00:03:57.310Z,98119.44
2022-12-19T00:06:28.360Z,98112.72
2022-12-19T00:09:00.348Z,98107.84
2022-12-19T00:11:30.338Z,98110.25
2022-12-19T00:13:59.140Z,98103.34
2022-12-19T00:16:31.081Z,98097.81
2022-12-19T00:19:02.679Z,98083.66
2022-12-19T00:21:34.780Z,98076.84
2022-12-19T00:24:20.058Z,98051.88
2022-12-19T00:26:49.914Z,98048.50
2022-12-19T00:29:18.556Z,98040.94
2022-12-19T00:31:47.394Z,98040.47
2022-12-19T00:34:16.642Z,98040.47
2022-12-19T00:36:46.310Z,98037.38
2022-12-19T00:39:14.605Z,98035.66
2022-12-19T00:41:43.813Z,98062.31
2022-12-19T00:44:18.305Z,98075.63
2022-12-19T00:46:52.330Z,98077.09
2022-12-19T00:49:21.741Z,98082.22
2022-12-19T00:51:51.436Z,98074.06
2022-12-19T00:54:20.182Z,98072.88
2022-12-19T00:56:48.689Z,98065.69
2022-12-19T00:59:20.081Z,98056.44
2022-12-19T01:01:58.522Z,98047.44
2022-12-19T01:04:28.595Z,98053.78
2022-12-19T01:07:02.658Z,98056.69
2022-12-19T01:09:36.225Z,98039.16
2022-12-19T01:12:24.618Z,98039.41
2022-12-19T01:14:58.521Z,98035.47
2022-12-19T01:17:43.850Z,98030.84
2022-12-19T01:20:20.211Z,98026.78
2022-12-19T01:22:56.362Z,98042.16
2022-12-19T01:25:28.523Z,98050.81
2022-12-19T01:27:57.252Z,98055.72
2022-12-19T01:30:26.129Z,98069.03
2022-12-19T01:32:58.218Z,98064.00
2022-12-19T01:35:29.520Z,98069.75
2022-12-19T01:38:07.948Z,98074.88
2022-12-19T01:40:38.006Z,98077.56
2022-12-19T01:43:07.757Z,98074.03
2022-12-19T01:45:42.163Z,98076.50
2022-12-19T01:48:20.507Z,98075.13
2022-12-19T01:51:02.011Z,98056.09
2022-12-19T01:53:46.942Z,98062.25
2022-12-19T01:56:20.702Z,98069.44
2022-12-19T01:59:05.091Z,98068.19
2022-12-19T02:01:51.251Z,98074.00
2022-12-19T02:04:26.033Z,98068.06
2022-12-19T02:06:58.557Z,98063.75
2022-12-19T02:09:28.822Z,98061.09
2022-12-19T02:11:59.956Z,98058.25
2022-12-19T02:14:29.705Z,98060.06
2022-12-19T02:17:13.707Z,98065.47
2022-12-19T02:20:29.314Z,98071.41
2022-12-19T02:23:34.108Z,98065.25
2022-12-19T02:26:22.451Z,98056.25
2022-12-19T02:29:22.019Z,98052.97
2022-12-19T02:31:59.633Z,98056.00
2022-12-19T02:34:38.848Z,98062.16
2022-12-19T02:37:20.812Z,98061.34
2022-12-19T02:39:57.721Z,98068.13
2022-12-19T02:42:32.021Z,98073.38
2022-12-19T02:45:04.528Z,98071.38
2022-12-19T02:47:36.220Z,98075.28
2022-12-19T02:50:07.465Z,98079.41
2022-12-19T02:52:49.927Z,98077.00
2022-12-19T02:55:24.958Z,98069.22
2022-12-19T02:58:32.478Z,98052.47
2022-12-19T03:01:15.887Z,98038.75
2022-12-19T03:03:58.476Z,98028.72
2022-12-19T03:06:34.666Z,98025.47
2022-12-19T03:09:15.526Z,98033.66
2022-12-19T03:11:47.777Z,98026.53
2022-12-19T03:14:22.193Z,98028.56
2022-12-19T03:16:54.169Z,98059.16
2022-12-19T03:19:25.210Z,98047.25
2022-12-19T03:21:53.930Z,98003.00
2022-12-19T03:24:22.875Z,98020.22
2022-12-19T03:26:58.078Z,98055.69
2022-12-19T03:29:33.783Z,98067.41
2022-12-19T03:32:08.421Z,98038.91
2022-12-19T03:34:43.194Z,98065.56
2022-12-19T03:37:18.713Z,98098.75
2022-12-19T03:39:51.932Z,98073.56
2022-12-19T03:42:41.646Z,98052.44
2022-12-19T03:45:12.626Z,98109.31
2022-12-19T03:47:48.230Z,98035.44
2022-12-19T03:50:18.568Z,98049.56
2022-12-19T03:52:55.368Z,98023.13
2022-12-19T03:55:35.934Z,98027.03
2022-12-19T03:58:11.058Z,98089.56
2022-12-19T04:00:47.512Z,98089.97
2022-12-19T04:03:19.240Z,98087.97
2022-12-19T04:05:51.659Z,98042.66
2022-12-19T04:08:20.515Z,98024.00
2022-12-19T04:10:53.038Z,98036.56
2022-12-19T04:13:31.197Z,98035.09
2022-12-19T04:16:12.867Z,98018.69
2022-12-19T04:18:48.069Z,97992.44
2022-12-19T04:21:23.513Z,97988.94
2022-12-19T04:23:59.047Z,97979.06
2022-12-19T04:26:29.586Z,97989.72
2022-12-19T04:29:04.820Z,98026.06
2022-12-19T04:31:33.655Z,98014.34
2022-12-19T04:34:02.443Z,98098.41
2022-12-19T04:36:32.549Z,98039.38
2022-12-19T04:39:01.218Z,98126.16
2022-12-19T04:41:29.857Z,98052.34
2022-12-19T04:43:58.205Z,98110.78
2022-12-19T04:46:27.008Z,98028.13
2022-12-19T04:48:55.660Z,98076.97
2022-12-19T04:51:24.372Z,98051.94
2022-12-19T04:53:54.061Z,98059.13
2022-12-19T04:56:22.700Z,98083.13
2022-12-19T04:58:51.320Z,98082.31
2022-12-19T05:01:20.033Z,98105.50
2022-12-19T05:03:54.077Z,98099.94
2022-12-19T05:06:23.887Z,98087.88
2022-12-19T05:08:53.606Z,98082.16
2022-12-19T05:11:22.684Z,98066.34
2022-12-19T05:13:51.657Z,98065.94
2022-12-19T05:16:20.471Z,98075.38
2022-12-19T05:18:48.819Z,98080.72
2022-12-19T05:21:17.407Z,98068.41
2022-12-19T05:23:46.052Z,98081.75
2022-12-19T05:26:15.760Z,98086.50
2022-12-19T05:28:44.604Z,98081.78
2022-12-19T05:31:16.795Z,98084.88
2022-12-19T05:33:45.694Z,98066.41
2022-12-19T05:36:16.369Z,98078.72
2022-12-19T05:38:44.974Z,98047.13
2022-12-19T05:41:16.811Z,98053.25
2022-12-19T05:43:45.753Z,98045.84
2022-12-19T05:46:14.529Z,98051.44
2022-12-19T05:48:43.192Z,98057.19
2022-12-19T05:51:11.941Z,98065.19
2022-12-19T05:53:41.543Z,98050.00
2022-12-19T05:56:13.784Z,98061.09
2022-12-19T05:58:45.111Z,98054.34
2022-12-19T06:01:16.521Z,98054.75
2022-12-19T06:03:45.588Z,98055.56
2022-12-19T06:06:17.108Z,98070.34
2022-12-19T06:08:46.041Z,98076.72
2022-12-19T06:11:15.997Z,98074.28
2022-12-19T06:13:46.013Z,98050.03
2022-12-19T06:16:17.324Z,98063.81
2022-12-19T06:18:47.416Z,98064.03
2022-12-19T06:21:18.577Z,98066.91
2022-12-19T06:23:48.060Z,98067.91
2022-12-19T06:26:20.529Z,98063.63
2022-12-19T06:28:51.991Z,98064.84
2022-12-19T06:31:22.607Z,98063.63
2022-12-19T06:33:51.307Z,98057.25
2022-12-19T06:36:23.838Z,98064.84
2022-12-19T06:38:53.186Z,98059.31
2022-12-19T06:41:40.058Z,98065.66
2022-12-19T06:44:13.207Z,98070.19
2022-12-19T06:46:42.674Z,98063.00
2022-12-19T06:49:12.887Z,98041.66
2022-12-19T06:51:42.293Z,98059.53
2022-12-19T06:54:11.576Z,98068.13
2022-12-19T06:56:42.942Z,98076.59
2022-12-19T06:59:15.722Z,98072.28
2022-12-19T07:01:58.201Z,98077.00
2022-12-19T07:04:33.308Z,98078.63
2022-12-19T07:07:02.535Z,98078.69
2022-12-19T07:09:33.013Z,98082.97
2022-12-19T07:12:01.924Z,98082.34
2022-12-19T07:14:31.734Z,98079.69
2022-12-19T07:17:03.510Z,98078.44
2022-12-19T07:19:33.655Z,98073.75
2022-12-19T07:22:04.452Z,98068.81
2022-12-19T07:24:33.431Z,98060.81
2022-12-19T07:27:02.026Z,98052.38
2022-12-19T07:29:31.833Z,98050.31
2022-12-19T07:32:00.545Z,98055.47
2022-12-19T07:34:30.089Z,98058.94
2022-12-19T07:36:58.508Z,98050.31
2022-12-19T07:39:27.618Z,98062.06
2022-12-19T07:41:55.968Z,98060.59
2022-12-19T07:44:36.537Z,98053.84
2022-12-19T07:47:05.007Z,98055.91
2022-12-19T07:49:33.383Z,98066.19
2022-12-19T07:52:01.813Z,98064.50
2022-12-19T07:54:30.515Z,98061.22
2022-12-19T07:56:59.202Z,98064.91
2022-12-19T07:59:32.214Z,98057.91
2022-12-19T08:02:03.154Z,98056.66
2022-12-19T08:04:31.586Z,98052.78
2022-12-19T08:07:00.013Z,98058.34
2022-12-19T08:09:28.353Z,98056.47
2022-12-19T08:11:56.879Z,98057.06
2022-12-19T08:14:25.750Z,98055.63
2022-12-19T08:17:19.641Z,98051.69
2022-12-19T08:19:44.127Z,98047.78
2022-12-19T08:22:12.812Z,98041.41
2022-12-19T08:24:41.154Z,98046.38
2022-12-19T08:27:09.827Z,98047.16
2022-12-19T08:29:38.495Z,98047.59
2022-12-19T08:32:06.911Z,98036.63
2022-12-19T08:34:36.580Z,98040.56
2022-12-19T08:37:06.244Z,98043.81
2022-12-19T08:39:34.600Z,98040.91
2022-12-19T08:42:03.316Z,98042.19
2022-12-19T08:44:31.993Z,98043.66
2022-12-19T08:47:00.710Z,98027.81
2022-12-19T08:49:29.117Z,98029.84
2022-12-19T08:51:57.540Z,98030.25
2022-12-19T08:54:27.336Z,98044.66
2022-12-19T08:56:56.011Z,98037.41
2022-12-19T08:59:30.915Z,98054.44
2022-12-19T09:02:01.699Z,98044.53
2022-12-19T09:05:31.365Z,98043.69
2022-12-19T09:07:19.434Z,98042.41
2022-12-19T09:09:49.204Z,98042.41
2022-12-19T09:12:17.912Z,98035.19
2022-12-19T09:14:46.423Z,98038.72
2022-12-19T09:17:14.984Z,98031.91
2022-12-19T09:19:47.535Z,98032.16
2022-12-19T09:22:17.595Z,98040.75
2022-12-19T09:24:48.031Z,98035.41
2022-12-19T09:27:16.687Z,98040.94
2022-12-19T09:29:45.352Z,98036.16
2022-12-19T09:32:14.173Z,98031.81
2022-12-19T09:34:42.592Z,98023.50
2022-12-19T09:37:16.676Z,98020.72
2022-12-19T09:39:48.513Z,98025.22
2022-12-19T09:42:54.679Z,98030.59
2022-12-19T09:45:38.631Z,98026.84
2022-12-19T09:48:23.987Z,98020.31
2022-12-19T09:51:09.576Z,98020.78
2022-12-19T09:53:59.447Z,98012.66
2022-12-19T09:56:46.034Z,98007.56
2022-12-19T09:59:31.828Z,97992.25
2022-12-19T10:02:34.269Z,98002.91
2022-12-19T10:05:45.209Z,98013.22
2022-12-19T10:08:16.800Z,97994.97
2022-12-19T10:12:39.409Z,98009.44
2022-12-19T10:14:18.992Z,98018.94
2022-12-19T10:17:23.127Z,98017.88
2022-12-19T10:20:16.327Z,98003.50
2022-12-19T10:23:02.592Z,98013.81
2022-12-19T10:25:52.173Z,98010.72
2022-12-19T10:28:43.731Z,98007.00
2022-12-19T10:31:22.237Z,98003.28
2022-12-19T10:33:58.892Z,97997.41
2022-12-19T10:37:04.015Z,97991.59
2022-12-19T10:39:30.765Z,97982.34
2022-12-19T10:42:14.191Z,97975.34
2022-12-19T10:44:46.620Z,97977.56
2022-12-19T10:47:18.443Z,97969.28
2022-12-19T10:49:46.854Z,97966.63
2022-12-19T10:52:16.126Z,97969.00
2022-12-19T10:54:45.133Z,97961.31
2022-12-19T10:57:25.541Z,97961.59
2022-12-19T11:00:00.152Z,97957.97
2022-12-19T11:02:43.184Z,97947.97
2022-12-19T11:05:27.329Z,97947.09
2022-12-19T11:08:18.109Z,97944.31
2022-12-19T11:11:52.304Z,97929.38
2022-12-19T11:18:43.382Z,97928.81
2022-12-19T11:22:33.800Z,97942.28
2022-12-19T11:24:10.088Z,97944.97
2022-12-19T11:29:40.888Z,97913.38
2022-12-19T11:29:54.951Z,97896.34
2022-12-19T11:30:35.460Z,97893.53
2022-12-19T11:32:31.479Z,97895.16
2022-12-19T11:34:18.982Z,97886.50
2022-12-19T11:36:56.767Z,97878.91
2022-12-19T11:39:36.309Z,97874.22
2022-12-19T11:42:18.251Z,97870.84
2022-12-19T11:45:00.615Z,97886.63
2022-12-19T11:47:41.643Z,97892.13
2022-12-19T11:50:19.503Z,97897.03
2022-12-19T11:53:14.610Z,97893.03
2022-12-19T11:55:51.243Z,97902.97
2022-12-19T11:58:19.758Z,97894.19
2022-12-19T12:01:02.990Z,97891.03
2022-12-19T12:04:08.582Z,97890.69
2022-12-19T12:06:48.819Z,97881.81
2022-12-19T12:13:23.121Z,97886.38
2022-12-19T12:19:00.080Z,97882.41
2022-12-19T12:23:52.925Z,97877.25
2022-12-19T12:31:09.987Z,97863.34
2022-12-19T12:31:49.435Z,97863.34
2022-12-19T12:31:58.468Z,97861.38
2022-12-19T12:32:00.365Z,97871.31
2022-12-19T12:35:28.856Z,97873.41
2022-12-19T12:40:52.909Z,97858.25
2022-12-19T12:43:41.045Z,97846.66
2022-12-19T12:46:18.236Z,97854.22
2022-12-19T12:48:55.560Z,97877.75
2022-12-19T12:51:26.733Z,97867.47
2022-12-19T12:54:01.477Z,97856.81
2022-12-19T12:56:32.869Z,97848.28
2022-12-19T12:59:20.250Z,97846.28
2022-12-19T13:01:55.059Z,97847.03
2022-12-19T13:04:42.534Z,97854.34
2022-12-19T13:07:25.562Z,97860.31
2022-12-19T13:10:16.045Z,97859.84
2022-12-19T13:13:07.969Z,97853.09
2022-12-19T13:15:44.480Z,97832.06
2022-12-19T13:18:34.363Z,97822.56
2022-12-19T13:21:08.020Z,97815.94
2022-12-19T13:23:48.941Z,97805.88
2022-12-19T13:26:51.175Z,97810.31
2022-12-19T13:29:34.730Z,97819.44
2022-12-19T13:32:15.128Z,97828.53
2022-12-19T13:35:13.855Z,97836.84
2022-12-19T13:39:57.350Z,97829.13
2022-12-19T13:41:24.953Z,97833.56
2022-12-19T13:43:58.601Z,97827.72
2022-12-19T13:46:39.236Z,97820.59
2022-12-19T13:49:15.155Z,97823.41
2022-12-19T13:51:48.781Z,97830.19
2022-12-19T13:54:23.856Z,97847.13
2022-12-19T13:56:53.498Z,97845.59
2022-12-19T13:59:25.618Z,97851.56
2022-12-19T14:01:56.493Z,97866.28
2022-12-19T14:04:31.162Z,97867.09
2022-12-19T14:07:03.447Z,97867.00
2022-12-19T14:11:30.125Z,97864.78
2022-12-19T14:13:59.226Z,97851.91
2022-12-19T14:15:40.303Z,97832.38
2022-12-19T14:18:43.371Z,97824.91
2022-12-19T14:22:10.002Z,97847.56
2022-12-19T14:24:17.041Z,97854.09
2022-12-19T14:28:24.527Z,97847.94
2022-12-19T14:30:27.494Z,97847.22
2022-12-19T14:33:45.635Z,97843.00
2022-12-19T14:36:07.636Z,97832.72
2022-12-19T14:39:23.053Z,97831.81
2022-12-19T14:41:57.443Z,97827.25
2022-12-19T14:51:42.649Z,97811.94
2022-12-19T14:54:17.514Z,97818.03
2022-12-19T14:54:18.685Z,97832.13
2022-12-19T14:54:28.660Z,97817.03
2022-12-19T14:56:40.247Z,97818.53
2022-12-19T14:59:37.936Z,97820.41
2022-12-19T15:02:27.686Z,97811.56
2022-12-19T15:05:06.776Z,97815.97
2022-12-19T15:07:42.372Z,97825.53
2022-12-19T15:11:05.088Z,97814.06
2022-12-19T15:14:56.213Z,97816.25
2022-12-19T15:16:25.893Z,97820.66
2022-12-19T15:18:58.087Z,97812.84
2022-12-19T15:21:27.716Z,97813.78
2022-12-19T15:23:58.395Z,97814.31
2022-12-19T15:26:31.296Z,97813.88
2022-12-19T15:29:00.680Z,97803.38
2022-12-19T15:31:36.554Z,97806.03
2022-12-19T15:34:35.092Z,97803.19
2022-12-19T15:37:05.816Z,97809.53
2022-12-19T15:39:36.698Z,97805.81
2022-12-19T15:42:06.456Z,97810.69
2022-12-19T15:44:38.347Z,97810.69
2022-12-19T15:47:16.297Z,97809.53
2022-12-19T15:49:44.783Z,97804.31
2022-12-19T15:52:18.961Z,97814.34
2022-12-19T15:54:50.586Z,97815.53
2022-12-19T15:57:30.315Z,97825.44
2022-12-19T16:00:02.261Z,97817.53
2022-12-19T16:03:20.626Z,97804.88
2022-12-19T16:05:25.447Z,97794.47
2022-12-19T16:07:54.117Z,97798.09
2022-12-19T16:10:24.344Z,97812.53
2022-12-19T16:12:56.650Z,97821.97
2022-12-19T16:15:31.131Z,97825.28
2022-12-19T16:18:02.973Z,97827.28
2022-12-19T16:20:37.840Z,97828.53
2022-12-19T16:23:06.609Z,97829.34
2022-12-19T16:25:40.804Z,97825.38
2022-12-19T16:28:19.331Z,97826.66
2022-12-19T16:30:50.747Z,97829.00
2022-12-19T16:33:22.468Z,97814.84
2022-12-19T16:36:04.207Z,97813.00
2022-12-19T16:38:34.272Z,97807.25
2022-12-19T16:41:04.702Z,97809.09
2022-12-19T16:43:38.415Z,97809.59
2022-12-19T16:46:09.033Z,97804.00
2022-12-19T16:48:37.922Z,97799.31
2022-12-19T16:51:06.713Z,97804.66
2022-12-19T16:53:35.398Z,97798.09
2022-12-19T16:56:06.483Z,97796.00
2022-12-19T16:58:41.222Z,97790.06
2022-12-19T17:01:11.923Z,97776.19
2022-12-19T17:03:44.609Z,97774.94
2022-12-19T17:06:15.314Z,97780.97
2022-12-19T17:08:44.749Z,97780.53
2022-12-19T17:11:23.299Z,97787.41
2022-12-19T17:13:56.455Z,97772.41
2022-12-19T17:16:25.065Z,97771.31
2022-12-19T17:18:54.446Z,97765.38
2022-12-19T17:21:24.312Z,97752.44
2022-12-19T17:23:53.060Z,97754.66
2022-12-19T17:26:22.840Z,97750.09
2022-12-19T17:28:51.535Z,97764.94
2022-12-19T17:31:25.594Z,97785.13
2022-12-19T17:33:57.849Z,97786.06
2022-12-19T17:36:37.155Z,97783.84
2022-12-19T17:39:20.279Z,97775.34
2022-12-19T17:41:51.409Z,97778.59
2022-12-19T17:44:20.296Z,97784.81
2022-12-19T17:46:49.529Z,97780.72
2022-12-19T17:49:24.688Z,97761.25
2022-12-19T17:51:53.709Z,97777.47
2022-12-19T17:54:23.133Z,97774.66
2022-12-19T17:56:53.734Z,97772.66
2022-12-19T17:59:22.483Z,97775.22
2022-12-19T18:01:51.281Z,97769.25
2022-12-19T18:04:21.919Z,97760.81
2022-12-19T18:06:50.746Z,97750.34
2022-12-19T18:09:20.766Z,97745.44
2022-12-19T18:11:50.418Z,97751.03
2022-12-19T18:14:21.429Z,97755.78
2022-12-19T18:16:52.313Z,97749.16
2022-12-19T18:19:24.601Z,97739.84
2022-12-19T18:21:53.277Z,97732.84
2022-12-19T18:24:21.922Z,97752.06
2022-12-19T18:26:50.571Z,97747.16
2022-12-19T18:29:20.278Z,97746.22
2022-12-19T18:31:51.169Z,97760.28
2022-12-19T18:34:22.979Z,97740.34
2022-12-19T18:36:53.476Z,97748.69
2022-12-19T18:39:25.372Z,97751.59
2022-12-19T18:41:55.208Z,97748.09
2022-12-19T18:44:25.295Z,97752.34
2022-12-19T18:46:54.401Z,97747.75
2022-12-19T18:49:23.909Z,97745.00
2022-12-19T18:51:52.287Z,97752.75
2022-12-19T18:54:23.324Z,97752.97
2022-12-19T18:56:52.956Z,97740.00
2022-12-19T18:59:21.298Z,97746.03
2022-12-19T19:01:51.110Z,97743.06
2022-12-19T19:04:19.823Z,97745.53
2022-12-19T19:06:52.181Z,97748.78
2022-12-19T19:09:21.862Z,97749.03
2022-12-19T19:12:01.414Z,97754.22
2022-12-19T19:14:29.963Z,97755.28
2022-12-19T19:16:59.896Z,97762.69
2022-12-19T19:19:28.575Z,97776.69
2022-12-19T19:21:57.481Z,97778.53
2022-12-19T19:24:25.893Z,97780.69
2022-12-19T19:26:54.667Z,97783.22
2022-12-19T19:29:23.326Z,97779.06
2022-12-19T19:31:53.315Z,97773.53
2022-12-19T19:34:28.625Z,97767.28
2022-12-19T19:37:01.719Z,97760.72
2022-12-19T19:39:35.144Z,97758.94
2022-12-19T19:42:04.023Z,97766.50
2022-12-19T19:44:32.924Z,97775.31
2022-12-19T19:47:02.032Z,97773.38
2022-12-19T19:49:31.840Z,97775.03
2022-12-19T19:52:02.958Z,97779.84
2022-12-19T19:54:32.707Z,97774.31
2022-12-19T19:57:01.310Z,97773.69
2022-12-19T19:59:31.905Z,97771.28
2022-12-19T20:02:00.837Z,97768.75
2022-12-19T20:04:31.094Z,97777.34
2022-12-19T20:06:59.765Z,97768.03
2022-12-19T20:09:28.710Z,97777.00
2022-12-19T20:11:57.572Z,97772.38
2022-12-19T20:14:26.621Z,97762.94
2022-12-19T20:16:55.553Z,97755.72
2022-12-19T20:19:24.592Z,97757.97
2022-12-19T20:21:54.324Z,97754.53
2022-12-19T20:24:22.628Z,97752.16
2022-12-19T20:26:51.057Z,97739.16
2022-12-19T20:29:20.579Z,97749.22
2022-12-19T20:31:49.538Z,97748.56
2022-12-19T20:34:19.953Z,97750.56
2022-12-19T20:36:48.838Z,97753.69
2022-12-19T20:39:22.013Z,97746.97
2022-12-19T20:41:52.005Z,97735.09
2022-12-19T20:44:24.457Z,97735.22
2022-12-19T20:46:53.640Z,97720.19
2022-12-19T20:49:22.094Z,97728.09
2022-12-19T20:51:50.788Z,97722.50
2022-12-19T20:54:20.868Z,97729.50
2022-12-19T20:56:49.217Z,97737.34
2022-12-19T20:59:17.926Z,97734.88
2022-12-19T21:01:47.054Z,97736.50
2022-12-19T21:04:15.871Z,97734.44
2022-12-19T21:06:44.451Z,97747.16
2022-12-19T21:09:13.149Z,97743.94
2022-12-19T21:11:42.822Z,97734.38
2022-12-19T21:14:11.986Z,97736.25
2022-12-19T21:16:40.813Z,97722.00
2022-12-19T21:19:09.420Z,97731.69
2022-12-19T21:21:38.371Z,97741.63
2022-12-19T21:24:07.385Z,97745.91
2022-12-19T21:26:36.121Z,97729.91
2022-12-19T21:29:05.844Z,97736.34
2022-12-19T21:31:34.386Z,97735.28
2022-12-19T21:34:04.180Z,97732.00
2022-12-19T21:36:33.341Z,97737.03
2022-12-19T21:39:02.950Z,97724.44
2022-12-19T21:41:32.427Z,97725.91
2022-12-19T21:44:01.597Z,97718.22
2022-12-19T21:46:34.046Z,97727.22
2022-12-19T21:49:03.301Z,97730.56
2022-12-19T21:51:32.994Z,97729.16
2022-12-19T21:54:04.999Z,97743.16
2022-12-19T21:56:36.514Z,97732.06
2022-12-19T21:59:07.551Z,97727.91
2022-12-19T22:01:37.590Z,97728.25
2022-12-19T22:04:09.319Z,97736.28
2022-12-19T22:06:39.853Z,97726.03
2022-12-19T22:09:13.032Z,97724.16
2022-12-19T22:11:41.475Z,97723.47
2022-12-19T22:14:11.417Z,97728.38
2022-12-19T22:16:42.041Z,97731.50
2022-12-19T22:19:13.463Z,97727.56
2022-12-19T22:21:41.867Z,97722.13
2022-12-19T22:24:14.418Z,97718.75
2022-12-19T22:26:43.435Z,97717.00
2022-12-19T22:29:15.594Z,97718.06
2022-12-19T22:31:46.891Z,97721.78
2022-12-19T22:34:18.203Z,97713.38
2022-12-19T22:36:48.732Z,97718.88
2022-12-19T22:39:19.983Z,97728.41
2022-12-19T22:41:48.632Z,97724.81
2022-12-19T22:44:19.853Z,97720.69
2022-12-19T22:46:50.474Z,97721.41
2022-12-19T22:49:19.273Z,97716.63
2022-12-19T22:51:48.307Z,97712.06
2022-12-19T22:54:17.060Z,97709.03
2022-12-19T22:56:45.710Z,97694.44
2022-12-19T22:59:14.469Z,97698.75
2022-12-19T23:01:44.393Z,97692.13
2022-12-19T23:04:17.472Z,97697.63
2022-12-19T23:06:46.725Z,97696.06
2022-12-19T23:09:18.658Z,97693.50
2022-12-19T23:11:50.382Z,97692.91
2022-12-19T23:14:21.158Z,97698.63
2022-12-19T23:16:50.213Z,97693.50
2022-12-19T23:19:20.165Z,97697.56
2022-12-19T23:21:48.531Z,97698.19
2022-12-19T23:24:17.518Z,97688.97
2022-12-19T23:26:46.000Z,97687.03
2022-12-19T23:29:16.435Z,97683.53
2022-12-19T23:31:47.822Z,97682.91
2022-12-19T23:34:17.129Z,97691.59
2022-12-19T23:39:36.591Z,97696.94
2022-12-19T23:42:05.862Z,97690.97
2022-12-19T23:44:34.397Z,97698.53
2022-12-19T23:47:04.131Z,97689.91
2022-12-19T23:49:34.314Z,97681.03
2022-12-19T23:52:04.142Z,97699.13
2022-12-19T23:54:32.615Z,97694.81
2022-12-19T23:57:01.255Z,97690.50
2022-12-19T23:59:29.678Z,97682.25
